createdAt,value
2024-05-09T00:01:07.277Z,96.40
2024-05-09T00:03:37.221Z,96.70
2024-05-09T00:06:07.827Z,96.38
2024-05-09T00:08:37.830Z,97.02
2024-05-09T00:11:07.926Z,97.38
2024-05-09T00:13:37.842Z,97.19
2024-05-09T00:16:10.541Z,97.00
2024-05-09T00:18:40.360Z,96.60
2024-05-09T00:21:10.882Z,95.16
2024-05-09T00:23:40.782Z,95.66
2024-05-09T00:26:10.718Z,96.97
2024-05-09T00:28:40.537Z,97.57
2024-05-09T00:31:13.154Z,98.50
2024-05-09T00:33:43.055Z,98.19
2024-05-09T00:36:12.852Z,98.37
2024-05-09T00:38:42.617Z,98.21
2024-05-09T00:41:12.450Z,98.77
2024-05-09T00:43:42.143Z,98.88
2024-05-09T00:46:14.639Z,97.83
2024-05-09T00:48:44.620Z,98.01
2024-05-09T00:51:14.645Z,97.88
2024-05-09T00:53:44.711Z,97.42
2024-05-09T00:56:14.807Z,97.08
2024-05-09T00:58:45.789Z,96.10
2024-05-09T01:01:23.190Z,97.11
2024-05-09T01:03:53.567Z,97.67
2024-05-09T01:06:24.282Z,98.21
2024-05-09T01:08:54.374Z,98.51
2024-05-09T01:11:24.424Z,97.95
2024-05-09T01:13:54.357Z,97.89
2024-05-09T01:16:26.787Z,98.59
2024-05-09T01:18:56.954Z,98.83
2024-05-09T01:21:27.202Z,99.35
2024-05-09T01:23:59.498Z,99.13
2024-05-09T01:26:29.296Z,98.62
2024-05-09T01:28:59.062Z,99.59
2024-05-09T01:31:29.092Z,99.53
2024-05-09T01:33:58.859Z,99.78
2024-05-09T01:36:28.765Z,100.00
2024-05-09T01:39:01.482Z,99.76
2024-05-09T01:41:31.259Z,100.00
2024-05-09T01:44:00.971Z,100.00
2024-05-09T01:46:30.622Z,99.35
2024-05-09T01:49:19.175Z,100.00
2024-05-09T01:51:48.836Z,100.00
2024-05-09T01:54:21.082Z,100.00
2024-05-09T01:56:50.613Z,100.00
2024-05-09T01:59:20.151Z,100.00
2024-05-09T02:01:56.699Z,100.00
2024-05-09T02:04:27.859Z,100.00
2024-05-09T02:06:57.522Z,100.00
2024-05-09T02:09:29.695Z,100.00
2024-05-09T02:11:59.340Z,100.00
2024-05-09T02:14:29.050Z,100.00
2024-05-09T02:16:58.649Z,100.00
2024-05-09T02:19:28.562Z,100.00
2024-05-09T02:21:58.116Z,100.00
2024-05-09T02:24:30.286Z,100.00
2024-05-09T02:27:00.033Z,100.00
2024-05-09T02:29:29.893Z,100.00
2024-05-09T02:31:59.552Z,100.00
2024-05-09T02:34:29.156Z,100.00
2024-05-09T02:36:58.756Z,100.00
2024-05-09T02:39:28.283Z,100.00
2024-05-09T02:41:57.887Z,100.00
2024-05-09T02:44:25.093Z,100.00
2024-05-09T02:46:54.856Z,100.00
2024-05-09T02:49:22.034Z,100.00
2024-05-09T02:51:51.610Z,100.00
2024-05-09T02:54:18.547Z,100.00
2024-05-09T02:56:50.699Z,100.00
2024-05-09T02:59:17.685Z,100.00
2024-05-09T03:01:47.448Z,100.00
2024-05-09T03:04:14.554Z,100.00
2024-05-09T03:06:44.124Z,100.00
2024-05-09T03:09:11.055Z,100.00
2024-05-09T03:11:40.810Z,100.00
2024-05-09T03:14:10.529Z,100.00
2024-05-09T03:16:40.689Z,100.00
2024-05-09T03:19:07.755Z,100.00
2024-05-09T03:21:40.826Z,99.73
2024-05-09T03:24:07.910Z,98.62
2024-05-09T03:26:37.585Z,99.64
2024-05-09T03:29:04.718Z,100.00
2024-05-09T03:31:37.025Z,100.00
2024-05-09T03:34:04.227Z,100.00
2024-05-09T03:36:34.173Z,100.00
2024-05-09T03:39:03.672Z,100.00
2024-05-09T03:41:33.354Z,100.00
2024-05-09T03:44:02.986Z,100.00
2024-05-09T03:46:30.045Z,100.00
2024-05-09T03:49:02.363Z,100.00
2024-05-09T03:51:29.403Z,100.00
2024-05-09T03:53:59.975Z,100.00
2024-05-09T03:56:27.025Z,100.00
2024-05-09T03:58:58.087Z,100.00
2024-05-09T04:01:25.515Z,100.00
2024-05-09T04:03:55.264Z,100.00
2024-05-09T04:06:26.173Z,100.00
2024-05-09T04:08:55.895Z,100.00
2024-05-09T04:11:23.006Z,100.00
2024-05-09T04:13:52.708Z,99.87
2024-05-09T04:16:19.714Z,98.36
2024-05-09T04:18:49.505Z,96.39
2024-05-09T04:21:18.181Z,94.19
2024-05-09T04:23:50.448Z,93.01
2024-05-09T04:26:17.511Z,91.60
2024-05-09T04:28:47.178Z,90.47
2024-05-09T04:31:14.608Z,89.00
2024-05-09T04:33:44.356Z,87.04
2024-05-09T04:36:11.444Z,86.71
2024-05-09T04:38:41.035Z,85.03
2024-05-09T04:41:10.678Z,84.80
2024-05-09T04:43:40.266Z,84.16
2024-05-09T04:46:07.207Z,82.96
2024-05-09T04:48:36.873Z,82.85
2024-05-09T04:51:04.246Z,81.81
2024-05-09T04:53:33.974Z,81.67
2024-05-09T04:56:01.027Z,80.56
2024-05-09T04:58:33.141Z,79.81
2024-05-09T05:01:00.987Z,77.72
2024-05-09T05:03:30.707Z,77.46
2024-05-09T05:05:57.985Z,77.75
2024-05-09T05:08:27.675Z,78.62
2024-05-09T05:10:54.747Z,78.89
2024-05-09T05:13:25.232Z,80.03
2024-05-09T05:15:57.239Z,80.49
2024-05-09T05:18:28.608Z,81.12
2024-05-09T05:20:56.577Z,82.07
2024-05-09T05:23:27.013Z,83.42
2024-05-09T05:25:54.859Z,84.02
2024-05-09T05:28:24.748Z,84.59
2024-05-09T05:30:54.272Z,83.86
2024-05-09T05:33:24.494Z,85.30
2024-05-09T05:35:51.563Z,85.83
2024-05-09T05:38:24.954Z,84.58
2024-05-09T05:40:54.466Z,86.51
2024-05-09T05:43:24.196Z,85.64
2024-05-09T05:45:51.148Z,85.26
2024-05-09T05:48:23.673Z,83.78
2024-05-09T05:50:50.763Z,85.41
2024-05-09T05:53:20.338Z,85.72
2024-05-09T05:55:47.436Z,85.93
2024-05-09T05:58:17.105Z,87.08
2024-05-09T06:00:44.596Z,86.89
2024-05-09T06:03:14.959Z,87.41
2024-05-09T06:05:45.928Z,86.38
2024-05-09T06:08:15.829Z,85.53
2024-05-09T06:10:43.034Z,85.89
2024-05-09T06:13:13.837Z,84.82
2024-05-09T06:15:41.853Z,86.04
2024-05-09T06:18:12.813Z,85.69
2024-05-09T06:20:41.886Z,85.27
2024-05-09T06:23:15.177Z,83.97
2024-05-09T06:25:42.795Z,81.97
2024-05-09T06:28:12.555Z,80.90
2024-05-09T06:30:42.417Z,80.33
2024-05-09T06:33:15.731Z,80.70
2024-05-09T06:35:44.057Z,80.83
2024-05-09T06:38:16.703Z,80.51
2024-05-09T06:40:44.560Z,78.07
2024-05-09T06:43:16.916Z,77.36
2024-05-09T06:45:46.919Z,75.97
2024-05-09T06:48:17.234Z,74.33
2024-05-09T06:50:44.435Z,73.58
2024-05-09T06:53:17.402Z,74.86
2024-05-09T06:55:44.789Z,74.15
2024-05-09T06:58:14.695Z,76.04
2024-05-09T07:00:42.425Z,75.20
2024-05-09T07:03:14.284Z,75.62
2024-05-09T07:05:44.054Z,72.45
2024-05-09T07:08:17.155Z,71.83
2024-05-09T07:10:44.535Z,69.72
2024-05-09T07:13:16.028Z,72.17
2024-05-09T07:15:43.557Z,69.78
2024-05-09T07:18:15.583Z,69.73
2024-05-09T07:20:43.233Z,70.63
2024-05-09T07:23:13.259Z,69.50
2024-05-09T07:25:43.000Z,67.10
2024-05-09T07:28:14.114Z,64.98
2024-05-09T07:30:41.634Z,63.92
2024-05-09T07:33:12.207Z,65.53
2024-05-09T07:35:39.923Z,67.22
2024-05-09T07:38:11.341Z,68.24
2024-05-09T07:40:39.284Z,67.15
2024-05-09T07:43:14.213Z,65.57
2024-05-09T07:45:50.693Z,64.16
2024-05-09T07:52:38.410Z,60.20
2024-05-09T07:53:49.213Z,58.19
2024-05-09T07:56:22.130Z,60.56
2024-05-09T07:58:56.171Z,58.42
2024-05-09T08:01:27.537Z,60.56
2024-05-09T08:03:55.232Z,61.84
2024-05-09T08:06:26.059Z,59.27
2024-05-09T08:08:53.314Z,59.24
2024-05-09T08:11:23.767Z,58.22
2024-05-09T08:13:53.953Z,56.18
2024-05-09T08:16:23.859Z,56.23
2024-05-09T08:18:50.963Z,56.69
2024-05-09T08:21:20.528Z,57.75
2024-05-09T08:23:47.572Z,56.90
2024-05-09T08:26:17.163Z,58.12
2024-05-09T08:28:44.164Z,58.22
2024-05-09T08:31:16.483Z,55.40
2024-05-09T08:33:44.492Z,55.25
2024-05-09T08:36:14.117Z,53.51
2024-05-09T08:38:41.050Z,54.82
2024-05-09T08:41:10.736Z,53.71
2024-05-09T08:43:40.679Z,48.74
2024-05-09T08:46:12.757Z,47.08
2024-05-09T08:48:45.687Z,48.62
2024-05-09T08:51:17.151Z,50.48
2024-05-09T08:53:44.193Z,52.61
2024-05-09T08:56:14.223Z,49.94
2024-05-09T08:58:42.606Z,48.66
2024-05-09T09:01:12.657Z,47.54
2024-05-09T09:03:43.534Z,48.76
2024-05-09T09:06:15.457Z,47.67
2024-05-09T09:08:43.041Z,49.93
2024-05-09T09:11:13.520Z,48.96
2024-05-09T09:13:40.510Z,46.52
2024-05-09T09:16:10.687Z,48.71
2024-05-09T09:18:37.906Z,47.25
2024-05-09T09:21:12.890Z,47.36
2024-05-09T09:23:39.918Z,48.45
2024-05-09T09:26:09.696Z,44.12
2024-05-09T09:28:36.842Z,45.01
2024-05-09T09:31:07.177Z,42.65
2024-05-09T09:33:36.173Z,45.15
2024-05-09T09:36:08.396Z,44.42
2024-05-09T09:38:40.576Z,45.32
2024-05-09T09:41:11.665Z,44.27
2024-05-09T09:43:39.887Z,44.53
2024-05-09T09:46:12.780Z,41.36
2024-05-09T09:48:40.623Z,43.61
2024-05-09T09:51:11.102Z,42.11
2024-05-09T09:53:42.460Z,43.92
2024-05-09T09:56:12.778Z,43.42
2024-05-09T09:58:40.443Z,42.49
2024-05-09T10:01:10.276Z,44.42
2024-05-09T10:03:37.695Z,43.63
2024-05-09T10:06:08.790Z,42.89
2024-05-09T10:08:36.639Z,44.06
2024-05-09T10:11:09.137Z,44.59
2024-05-09T10:13:36.449Z,42.19
2024-05-09T10:16:12.148Z,40.10
2024-05-09T10:18:40.748Z,40.48
2024-05-09T10:21:20.435Z,41.89
2024-05-09T10:23:58.176Z,41.52
2024-05-09T10:26:37.761Z,39.60
2024-05-09T10:29:12.217Z,41.97
2024-05-09T10:31:44.212Z,41.74
2024-05-09T10:34:20.200Z,43.46
2024-05-09T10:36:52.292Z,43.96
2024-05-09T10:39:22.837Z,45.22
2024-05-09T10:41:52.620Z,42.23
2024-05-09T10:44:24.081Z,41.57
2024-05-09T10:46:51.328Z,42.51
2024-05-09T10:49:21.204Z,41.08
2024-05-09T10:51:48.751Z,45.46
2024-05-09T10:54:18.635Z,45.14
2024-05-09T10:56:45.592Z,42.32
2024-05-09T10:59:17.930Z,43.62
2024-05-09T11:01:45.015Z,45.22
2024-05-09T11:04:15.029Z,42.35
2024-05-09T11:06:42.929Z,41.99
2024-05-09T11:09:13.211Z,43.00
2024-05-09T11:11:40.489Z,42.83
2024-05-09T11:14:18.677Z,41.93
2024-05-09T11:16:45.742Z,44.53
2024-05-09T11:19:18.605Z,43.67
2024-05-09T11:21:51.055Z,43.63
2024-05-09T11:24:20.931Z,43.11
2024-05-09T11:26:47.975Z,44.27
2024-05-09T11:29:20.125Z,42.73
2024-05-09T11:31:47.973Z,41.86
2024-05-09T11:34:18.085Z,41.12
2024-05-09T11:36:45.280Z,40.05
2024-05-09T11:39:15.257Z,42.16
2024-05-09T11:41:42.447Z,43.00
2024-05-09T11:44:13.110Z,45.00
2024-05-09T11:46:42.849Z,43.94
2024-05-09T11:49:12.845Z,45.56
2024-05-09T11:51:39.980Z,44.22
2024-05-09T11:54:10.086Z,45.82
2024-05-09T11:56:37.313Z,47.05
2024-05-09T11:59:06.811Z,47.05
2024-05-09T12:01:34.066Z,48.36
2024-05-09T12:04:07.008Z,48.59
2024-05-09T12:06:34.202Z,47.12
2024-05-09T12:09:03.806Z,46.18
2024-05-09T12:11:30.817Z,44.18
2024-05-09T12:14:00.480Z,43.12
2024-05-09T12:16:27.509Z,43.40
2024-05-09T12:18:57.404Z,45.24
2024-05-09T12:21:27.640Z,41.75
2024-05-09T12:23:57.241Z,43.09
2024-05-09T12:26:24.411Z,42.50
2024-05-09T12:28:53.985Z,42.45
2024-05-09T12:31:21.022Z,41.07
2024-05-09T12:33:50.721Z,43.92
2024-05-09T12:36:17.956Z,44.82
2024-05-09T12:38:50.429Z,44.37
2024-05-09T12:41:17.463Z,43.93
2024-05-09T12:43:47.098Z,43.00
2024-05-09T12:46:14.476Z,42.83
2024-05-09T12:48:44.313Z,42.18
2024-05-09T12:51:11.497Z,42.72
2024-05-09T12:53:41.116Z,45.05
2024-05-09T12:56:10.947Z,42.42
2024-05-09T12:58:40.983Z,44.86
2024-05-09T13:01:07.981Z,43.66
2024-05-09T13:03:37.758Z,42.53
2024-05-09T13:06:05.240Z,46.00
2024-05-09T13:08:34.907Z,45.93
2024-05-09T13:11:01.905Z,43.33
2024-05-09T13:13:34.056Z,42.12
2024-05-09T13:16:01.039Z,43.29
2024-05-09T13:18:30.806Z,42.08
2024-05-09T13:20:57.821Z,41.78
2024-05-09T13:23:27.313Z,39.77
2024-05-09T13:25:54.646Z,40.28
2024-05-09T13:28:24.491Z,41.81
2024-05-09T13:30:54.251Z,39.98
2024-05-09T13:33:24.280Z,41.05
2024-05-09T13:35:51.522Z,42.16
2024-05-09T13:38:21.889Z,41.65
2024-05-09T13:40:49.986Z,39.23
2024-05-09T13:43:21.835Z,40.33
2024-05-09T13:45:49.378Z,40.22
2024-05-09T13:48:21.757Z,41.89
2024-05-09T13:50:48.902Z,42.18
2024-05-09T13:53:18.585Z,42.78
2024-05-09T13:55:45.691Z,43.20
2024-05-09T13:58:15.995Z,42.04
2024-05-09T14:00:47.959Z,43.01
2024-05-09T14:03:22.011Z,41.96
2024-05-09T14:05:50.902Z,40.98
2024-05-09T14:08:22.323Z,41.93
2024-05-09T14:10:50.817Z,40.88
2024-05-09T14:13:20.631Z,42.17
2024-05-09T14:15:48.031Z,39.70
2024-05-09T14:18:17.843Z,40.79
2024-05-09T14:20:47.518Z,43.11
2024-05-09T14:23:17.770Z,41.15
2024-05-09T14:25:46.585Z,41.57
2024-05-09T14:28:19.050Z,41.38
2024-05-09T14:30:46.682Z,40.15
2024-05-09T14:33:20.576Z,39.78
2024-05-09T14:35:50.275Z,41.45
2024-05-09T14:38:19.834Z,41.67
2024-05-09T14:40:46.908Z,41.31
2024-05-09T14:43:17.695Z,39.16
2024-05-09T14:45:45.119Z,41.03
2024-05-09T14:48:17.079Z,40.78
2024-05-09T14:50:46.860Z,38.62
2024-05-09T14:53:16.330Z,40.42
2024-05-09T14:55:45.962Z,39.12
2024-05-09T14:58:13.643Z,40.96
2024-05-09T15:00:48.513Z,42.31
2024-05-09T15:03:18.752Z,41.90
2024-05-09T15:05:49.683Z,41.71
2024-05-09T15:08:20.325Z,40.56
2024-05-09T15:10:50.977Z,42.72
2024-05-09T15:13:18.567Z,43.98
2024-05-09T15:15:48.581Z,45.09
2024-05-09T15:18:16.397Z,42.19
2024-05-09T15:20:46.755Z,43.04
2024-05-09T15:23:13.992Z,43.63
2024-05-09T15:25:47.425Z,42.36
2024-05-09T15:28:14.621Z,43.90
2024-05-09T15:30:46.490Z,42.01
2024-05-09T15:33:14.385Z,43.74
2024-05-09T15:35:46.223Z,43.77
2024-05-09T15:38:14.593Z,43.97
2024-05-09T15:40:47.063Z,45.51
2024-05-09T15:43:14.451Z,42.57
2024-05-09T15:45:45.013Z,43.83
2024-05-09T15:48:12.478Z,44.16
2024-05-09T15:50:42.878Z,43.04
2024-05-09T15:53:12.191Z,43.89
2024-05-09T15:55:42.739Z,43.44
2024-05-09T15:58:13.164Z,44.33
2024-05-09T16:00:46.284Z,43.37
2024-05-09T16:03:15.647Z,43.72
2024-05-09T16:05:47.599Z,44.08
2024-05-09T16:08:15.843Z,43.91
2024-05-09T16:10:46.443Z,44.42
2024-05-09T16:13:17.634Z,44.47
2024-05-09T16:15:48.313Z,45.15
2024-05-09T16:18:15.813Z,45.60
2024-05-09T16:20:49.228Z,45.69
2024-05-09T16:23:17.326Z,46.46
2024-05-09T16:25:48.267Z,45.63
2024-05-09T16:28:18.527Z,45.70
2024-05-09T16:30:48.275Z,45.51
2024-05-09T16:33:15.402Z,45.76
2024-05-09T16:35:44.953Z,45.80
2024-05-09T16:38:12.467Z,46.78
2024-05-09T16:40:42.040Z,47.19
2024-05-09T16:43:10.090Z,46.93
2024-05-09T16:45:45.180Z,45.76
2024-05-09T16:48:14.066Z,45.82
2024-05-09T16:50:44.097Z,46.47
2024-05-09T16:53:11.473Z,49.75
2024-05-09T16:55:41.027Z,48.84
2024-05-09T16:58:08.648Z,50.79
2024-05-09T17:00:42.364Z,50.94
2024-05-09T17:03:15.212Z,49.40
2024-05-09T17:05:47.257Z,50.42
2024-05-09T17:08:15.778Z,52.47
2024-05-09T17:10:45.543Z,51.57
2024-05-09T17:13:15.211Z,51.49
2024-05-09T17:15:44.861Z,52.27
2024-05-09T17:18:17.270Z,53.47
2024-05-09T17:20:46.830Z,52.76
2024-05-09T17:23:14.443Z,53.38
2024-05-09T17:25:45.062Z,53.90
2024-05-09T17:28:12.568Z,55.10
2024-05-09T17:30:42.986Z,54.52
2024-05-09T17:33:12.837Z,54.61
2024-05-09T17:35:46.107Z,54.89
2024-05-09T17:38:13.376Z,54.76
2024-05-09T17:40:43.550Z,53.89
2024-05-09T17:43:11.180Z,55.31
2024-05-09T17:45:41.878Z,56.23
2024-05-09T17:48:10.382Z,55.84
2024-05-09T17:50:41.850Z,56.59
2024-05-09T17:53:11.844Z,54.95
2024-05-09T17:55:42.594Z,56.06
2024-05-09T17:58:10.176Z,57.11
2024-05-09T18:00:42.168Z,55.77
2024-05-09T18:03:12.042Z,56.93
2024-05-09T18:05:44.415Z,57.60
2024-05-09T18:08:14.921Z,57.22
2024-05-09T18:10:44.867Z,58.05
2024-05-09T18:13:12.939Z,58.04
2024-05-09T18:15:42.804Z,58.09
2024-05-09T18:18:11.157Z,58.66
2024-05-09T18:20:44.798Z,58.02
2024-05-09T18:23:18.166Z,58.70
2024-05-09T18:25:48.742Z,58.51
2024-05-09T18:28:16.940Z,58.97
2024-05-09T18:30:47.705Z,59.27
2024-05-09T18:33:15.060Z,59.85
2024-05-09T18:35:45.795Z,59.95
2024-05-09T18:38:15.581Z,60.79
2024-05-09T18:40:48.304Z,60.53
2024-05-09T18:43:16.680Z,61.09
2024-05-09T18:45:49.118Z,61.64
2024-05-09T18:48:16.510Z,61.65
2024-05-09T18:50:46.422Z,62.90
2024-05-09T18:53:16.248Z,62.99
2024-05-09T18:55:45.863Z,64.26
2024-05-09T18:58:13.092Z,63.32
2024-05-09T19:00:45.407Z,63.45
2024-05-09T19:03:17.911Z,64.01
2024-05-09T19:05:46.435Z,65.12
2024-05-09T19:08:19.115Z,65.43
2024-05-09T19:10:46.556Z,65.27
2024-05-09T19:13:16.621Z,65.47
2024-05-09T19:15:44.507Z,65.74
2024-05-09T19:18:15.444Z,65.77
2024-05-09T19:20:43.390Z,66.03
2024-05-09T19:23:14.035Z,66.79
2024-05-09T19:25:43.561Z,66.71
2024-05-09T19:28:13.126Z,67.08
2024-05-09T19:30:42.451Z,67.03
2024-05-09T19:33:14.187Z,67.55
2024-05-09T19:35:41.814Z,68.57
2024-05-09T19:38:11.718Z,69.08
2024-05-09T19:40:39.082Z,69.22
2024-05-09T19:43:11.777Z,69.09
2024-05-09T19:45:39.211Z,69.50
2024-05-09T19:48:09.980Z,69.97
2024-05-09T19:50:42.533Z,71.04
2024-05-09T19:53:14.439Z,72.33
2024-05-09T19:55:42.550Z,72.27
2024-05-09T19:58:14.834Z,72.68
2024-05-09T20:00:43.673Z,73.62
2024-05-09T20:03:15.562Z,72.86
2024-05-09T20:05:45.016Z,74.85
2024-05-09T20:08:15.055Z,75.21
2024-05-09T20:10:42.386Z,76.33
2024-05-09T20:13:12.633Z,76.73
2024-05-09T20:15:42.590Z,77.60
2024-05-09T20:18:12.302Z,77.30
2024-05-09T20:20:42.532Z,77.69
2024-05-09T20:23:13.747Z,78.59
2024-05-09T20:25:41.540Z,79.10
2024-05-09T20:28:11.472Z,78.79
2024-05-09T20:30:38.891Z,79.22
2024-05-09T20:33:12.686Z,79.82
2024-05-09T20:35:40.060Z,79.84
2024-05-09T20:38:10.039Z,80.13
2024-05-09T20:40:39.200Z,80.90
2024-05-09T20:43:11.003Z,82.07
2024-05-09T20:45:38.410Z,80.94
2024-05-09T20:48:12.171Z,81.58
2024-05-09T20:50:41.801Z,82.25
2024-05-09T20:53:14.627Z,81.88
2024-05-09T20:55:42.732Z,81.17
2024-05-09T20:58:12.969Z,81.80
2024-05-09T21:00:43.802Z,82.52
2024-05-09T21:03:18.365Z,82.42
2024-05-09T21:05:46.391Z,82.95
2024-05-09T21:08:16.633Z,82.74
2024-05-09T21:10:43.763Z,82.69
2024-05-09T21:13:13.765Z,81.09
2024-05-09T21:15:41.050Z,82.40
2024-05-09T21:18:11.286Z,83.32
2024-05-09T21:20:43.613Z,83.40
2024-05-09T21:23:13.272Z,83.85
2024-05-09T21:25:40.467Z,84.21
2024-05-09T21:28:10.274Z,85.67
2024-05-09T21:30:41.658Z,85.72
2024-05-09T21:33:14.672Z,86.45
2024-05-09T21:35:45.242Z,85.91
2024-05-09T21:38:16.105Z,85.25
2024-05-09T21:40:43.698Z,86.33
2024-05-09T21:43:14.402Z,86.68
2024-05-09T21:45:41.707Z,87.23
2024-05-09T21:48:11.591Z,87.60
2024-05-09T21:50:41.322Z,88.55
2024-05-09T21:53:14.794Z,87.59
2024-05-09T21:55:42.159Z,88.79
2024-05-09T21:58:11.879Z,89.14
2024-05-09T22:00:40.965Z,90.32
2024-05-09T22:03:12.307Z,90.00
2024-05-09T22:05:43.423Z,90.65
2024-05-09T22:08:15.792Z,90.70
2024-05-09T22:10:42.941Z,90.58
2024-05-09T22:13:12.668Z,90.62
2024-05-09T22:15:40.664Z,90.72
2024-05-09T22:18:11.843Z,89.50
2024-05-09T22:20:44.660Z,89.78
2024-05-09T22:23:18.365Z,90.15
2024-05-09T22:25:45.393Z,90.51
2024-05-09T22:28:17.122Z,90.20
2024-05-09T22:30:46.069Z,90.63
2024-05-09T22:33:17.256Z,89.09
2024-05-09T22:35:44.417Z,88.91
2024-05-09T22:38:13.972Z,89.42
2024-05-09T22:40:48.316Z,90.61
2024-05-09T22:43:23.870Z,92.42
2024-05-09T22:45:52.402Z,92.67
2024-05-09T22:48:23.382Z,93.76
2024-05-09T22:50:50.732Z,93.43
2024-05-09T22:53:20.757Z,92.97
2024-05-09T22:55:50.494Z,92.93
2024-05-09T22:58:20.790Z,93.73
2024-05-09T23:00:48.027Z,93.98
2024-05-09T23:03:20.842Z,93.65
2024-05-09T23:05:48.716Z,93.24
2024-05-09T23:08:18.229Z,93.79
2024-05-09T23:10:45.144Z,94.76
2024-05-09T23:13:17.484Z,95.36
2024-05-09T23:15:44.574Z,95.80
2024-05-09T23:18:14.205Z,95.75
2024-05-09T23:20:41.221Z,95.13
2024-05-09T23:23:12.343Z,95.17
2024-05-09T23:25:41.433Z,94.46
2024-05-09T23:28:11.615Z,94.04
2024-05-09T23:30:42.163Z,94.05
2024-05-09T23:33:14.320Z,93.96
2024-05-09T23:35:42.454Z,94.03
2024-05-09T23:38:11.992Z,94.41
2024-05-09T23:40:41.120Z,93.90
2024-05-09T23:43:12.681Z,94.19
2024-05-09T23:45:43.682Z,94.79
2024-05-09T23:48:13.531Z,94.71
2024-05-09T23:50:41.501Z,94.97
2024-05-09T23:53:11.531Z,94.14
2024-05-09T23:55:39.171Z,94.96
2024-05-09T23:58:09.556Z,96.17
